createdAt,value
2019-05-23T00:00:45.668Z,33.50
2019-05-23T00:01:45.665Z,32.60
2019-05-23T00:02:45.648Z,31.70
2019-05-23T00:03:45.635Z,32.20
2019-05-23T00:04:45.648Z,34.10
2019-05-23T00:05:45.625Z,35.80
2019-05-23T00:06:45.618Z,32.20
2019-05-23T00:07:45.627Z,31.90
2019-05-23T00:08:45.603Z,29.70
2019-05-23T00:09:45.584Z,30.60
2019-05-23T00:10:45.610Z,30.00
2019-05-23T00:11:45.602Z,29.50
2019-05-23T00:12:45.584Z,30.70
2019-05-23T00:13:45.549Z,30.50
2019-05-23T00:14:45.583Z,31.00
2019-05-23T00:15:45.546Z,29.80
2019-05-23T00:16:45.526Z,29.40
2019-05-23T00:17:45.525Z,29.60
2019-05-23T00:18:45.523Z,29.60
2019-05-23T00:19:45.510Z,28.90
2019-05-23T00:20:45.515Z,28.40
2019-05-23T00:21:45.509Z,28.90
2019-05-23T00:22:45.484Z,29.70
2019-05-23T00:23:45.467Z,30.00
2019-05-23T00:24:45.474Z,30.30
2019-05-23T00:25:45.472Z,32.20
2019-05-23T00:26:45.438Z,31.60
2019-05-23T00:27:45.434Z,33.00
2019-05-23T00:28:45.432Z,32.50
2019-05-23T00:29:45.402Z,32.20
2019-05-23T00:30:45.413Z,33.30
2019-05-23T00:31:45.393Z,33.00
2019-05-23T00:32:45.398Z,32.90
2019-05-23T00:33:45.401Z,33.90
2019-05-23T00:34:45.394Z,34.10
2019-05-23T00:35:45.376Z,35.10
2019-05-23T00:36:45.377Z,34.70
2019-05-23T00:37:45.365Z,35.70
2019-05-23T00:38:45.360Z,33.90
2019-05-23T00:39:45.334Z,34.40
2019-05-23T00:40:45.317Z,34.50
2019-05-23T00:41:45.327Z,34.90
2019-05-23T00:42:45.309Z,34.80
2019-05-23T00:43:45.313Z,35.20
2019-05-23T00:44:45.277Z,34.90
2019-05-23T00:45:45.289Z,35.60
2019-05-23T00:46:45.337Z,34.60
2019-05-23T00:47:45.271Z,35.60
2019-05-23T00:48:45.255Z,35.60
2019-05-23T00:49:45.242Z,34.90
2019-05-23T00:50:45.240Z,36.00
2019-05-23T00:51:45.249Z,35.90
2019-05-23T00:52:45.239Z,35.70
2019-05-23T00:53:45.227Z,36.70
2019-05-23T00:54:45.193Z,36.90
2019-05-23T00:55:45.223Z,36.20
2019-05-23T00:56:45.182Z,36.30
2019-05-23T00:57:45.189Z,37.90
2019-05-23T00:58:45.165Z,37.30
2019-05-23T00:59:45.164Z,37.30
2019-05-23T01:00:45.141Z,37.20
2019-05-23T01:01:45.146Z,37.40
2019-05-23T01:02:45.119Z,38.40
2019-05-23T01:03:45.175Z,37.60
2019-05-23T01:04:45.254Z,39.70
2019-05-23T01:05:45.096Z,40.90
2019-05-23T01:06:45.110Z,39.90
2019-05-23T01:07:45.081Z,39.10
2019-05-23T01:08:45.073Z,39.20
2019-05-23T01:09:45.181Z,40.00
2019-05-23T01:10:45.048Z,40.90
2019-05-23T01:11:45.035Z,38.80
2019-05-23T01:12:45.025Z,40.90
2019-05-23T01:13:45.047Z,39.90
2019-05-23T01:14:45.075Z,40.00
2019-05-23T01:15:45.084Z,41.30
2019-05-23T01:16:45.014Z,40.30
2019-05-23T01:17:44.996Z,39.40
2019-05-23T01:18:44.986Z,39.50
2019-05-23T01:19:44.990Z,40.10
2019-05-23T01:20:45.025Z,41.50
2019-05-23T01:21:44.967Z,42.10
2019-05-23T01:22:44.953Z,41.70
2019-05-23T01:23:44.946Z,41.70
2019-05-23T01:24:44.941Z,40.10
2019-05-23T01:25:45.009Z,41.70
2019-05-23T01:26:44.912Z,42.00
2019-05-23T01:27:44.923Z,42.50
2019-05-23T01:28:44.921Z,42.50
2019-05-23T01:29:49.582Z,42.20
2019-05-23T01:30:44.972Z,41.80
2019-05-23T01:31:44.884Z,43.10
2019-05-23T01:32:44.864Z,41.20
2019-05-23T01:33:44.863Z,41.60
2019-05-23T01:34:44.852Z,42.40
2019-05-23T01:35:44.880Z,41.50
2019-05-23T01:36:44.980Z,41.60
2019-05-23T01:37:44.790Z,42.60
2019-05-23T01:38:44.818Z,41.80
2019-05-23T01:39:44.823Z,42.40
2019-05-23T01:40:44.779Z,43.10
2019-05-23T01:41:44.829Z,44.10
2019-05-23T01:42:44.823Z,43.00
2019-05-23T01:43:44.750Z,42.60
2019-05-23T01:44:44.757Z,43.00
2019-05-23T01:45:44.753Z,42.50
2019-05-23T01:46:44.732Z,42.80
2019-05-23T01:47:44.750Z,41.70
2019-05-23T01:48:44.707Z,41.90
2019-05-23T01:49:44.732Z,43.60
2019-05-23T01:50:44.700Z,42.60
2019-05-23T01:51:44.663Z,41.70
2019-05-23T01:52:44.681Z,42.70
2019-05-23T01:53:44.676Z,43.00
2019-05-23T01:54:44.663Z,43.80
2019-05-23T01:55:44.664Z,43.50
2019-05-23T01:56:44.705Z,43.20
2019-05-23T01:57:44.629Z,41.90
2019-05-23T01:58:44.626Z,44.00
2019-05-23T01:59:44.597Z,45.50
2019-05-23T02:00:44.605Z,45.10
2019-05-23T02:01:44.607Z,45.00
2019-05-23T02:02:44.596Z,45.80
2019-05-23T02:03:44.572Z,44.70
2019-05-23T02:04:44.550Z,46.20
2019-05-23T02:05:44.585Z,47.20
2019-05-23T02:06:44.560Z,45.10
2019-05-23T02:07:44.522Z,46.50
2019-05-23T02:08:44.530Z,48.70
2019-05-23T02:09:44.548Z,45.30
2019-05-23T02:10:44.528Z,44.70
2019-05-23T02:11:44.528Z,45.00
2019-05-23T02:12:44.503Z,45.40
2019-05-23T02:13:44.485Z,44.80
2019-05-23T02:14:44.469Z,45.40
2019-05-23T02:15:44.484Z,45.80
2019-05-23T02:16:44.447Z,45.70
2019-05-23T02:17:44.457Z,46.00
2019-05-23T02:18:44.441Z,45.80
2019-05-23T02:19:44.413Z,45.60
2019-05-23T02:20:44.435Z,44.80
2019-05-23T02:21:44.415Z,43.20
2019-05-23T02:22:44.412Z,45.80
2019-05-23T02:23:44.402Z,45.60
2019-05-23T02:24:44.381Z,44.90
2019-05-23T02:25:44.363Z,44.60
2019-05-23T02:26:44.358Z,45.90
2019-05-23T02:27:44.353Z,44.00
2019-05-23T02:28:44.333Z,43.90
2019-05-23T02:29:44.345Z,45.70
2019-05-23T02:30:44.317Z,45.80
2019-05-23T02:31:44.316Z,44.90
2019-05-23T02:32:44.321Z,44.90
2019-05-23T02:33:44.292Z,46.00
2019-05-23T02:34:44.291Z,45.20
2019-05-23T02:35:44.286Z,47.80
2019-05-23T02:36:44.264Z,45.50
2019-05-23T02:37:44.250Z,46.10
2019-05-23T02:38:44.252Z,45.10
2019-05-23T02:39:44.255Z,45.80
2019-05-23T02:40:44.239Z,45.80
2019-05-23T02:41:44.221Z,47.80
2019-05-23T02:42:44.213Z,47.30
2019-05-23T02:43:44.181Z,46.00
2019-05-23T02:44:44.196Z,46.90
2019-05-23T02:45:44.192Z,47.50
2019-05-23T02:46:44.170Z,45.60
2019-05-23T02:47:44.172Z,47.00
2019-05-23T02:48:44.149Z,45.30
2019-05-23T02:49:44.157Z,46.10
2019-05-23T02:50:44.158Z,45.30
2019-05-23T02:51:44.143Z,44.60
2019-05-23T02:52:44.145Z,44.60
2019-05-23T02:53:44.113Z,45.10
2019-05-23T02:54:44.112Z,44.40
2019-05-23T02:55:44.086Z,46.50
2019-05-23T02:56:44.092Z,47.90
2019-05-23T02:57:44.094Z,47.20
2019-05-23T02:58:44.084Z,48.20
2019-05-23T02:59:44.041Z,49.00
2019-05-23T03:00:54.174Z,48.00
2019-05-23T03:01:44.038Z,48.10
2019-05-23T03:02:44.047Z,47.70
2019-05-23T03:03:44.003Z,49.00
2019-05-23T03:04:44.004Z,48.30
2019-05-23T03:05:43.985Z,47.60
2019-05-23T03:06:44.015Z,46.90
2019-05-23T03:07:44.033Z,47.00
2019-05-23T03:08:44.058Z,48.20
2019-05-23T03:09:43.964Z,48.50
2019-05-23T03:10:43.955Z,46.70
2019-05-23T03:11:43.948Z,50.20
2019-05-23T03:12:43.950Z,50.20
2019-05-23T03:13:43.926Z,50.50
2019-05-23T03:14:43.926Z,50.70
2019-05-23T03:15:43.911Z,50.30
2019-05-23T03:16:43.974Z,50.20
2019-05-23T03:17:43.878Z,50.30
2019-05-23T03:18:43.871Z,51.60
2019-05-23T03:19:43.860Z,55.00
2019-05-23T03:20:43.867Z,60.70
2019-05-23T03:21:43.842Z,59.30
2019-05-23T03:22:43.832Z,58.10
2019-05-23T03:23:43.797Z,59.00
2019-05-23T03:24:43.809Z,61.90
2019-05-23T03:25:43.809Z,69.90
2019-05-23T03:26:43.800Z,69.70
2019-05-23T03:27:43.796Z,68.60
2019-05-23T03:28:43.766Z,64.10
2019-05-23T03:29:43.774Z,62.20
2019-05-23T03:30:43.753Z,62.90
2019-05-23T03:31:43.756Z,63.10
2019-05-23T03:32:43.737Z,63.10
2019-05-23T03:33:43.737Z,62.90
2019-05-23T03:34:43.743Z,65.60
2019-05-23T03:35:43.718Z,62.10
2019-05-23T03:36:43.715Z,61.60
2019-05-23T03:37:43.677Z,59.70
2019-05-23T03:38:43.679Z,59.70
2019-05-23T03:39:43.686Z,60.50
2019-05-23T03:40:43.657Z,56.40
2019-05-23T03:41:43.681Z,54.90
2019-05-23T03:42:43.647Z,53.30
2019-05-23T03:43:43.649Z,55.30
2019-05-23T03:44:43.633Z,55.70
2019-05-23T03:45:43.605Z,58.80
2019-05-23T03:46:43.651Z,55.30
2019-05-23T03:47:43.617Z,56.30
2019-05-23T03:48:43.588Z,56.50
2019-05-23T03:49:43.574Z,52.80
2019-05-23T03:50:43.583Z,50.90
2019-05-23T03:51:43.556Z,49.70
2019-05-23T03:52:43.554Z,48.00
2019-05-23T03:53:43.529Z,47.70
2019-05-23T03:54:43.523Z,48.20
2019-05-23T03:55:43.544Z,50.40
2019-05-23T03:56:43.513Z,51.40
2019-05-23T03:57:43.493Z,50.70
2019-05-23T03:58:43.485Z,48.60
2019-05-23T03:59:43.481Z,47.60
2019-05-23T04:00:43.503Z,49.70
2019-05-23T04:01:48.379Z,48.20
2019-05-23T04:02:43.469Z,50.40
2019-05-23T04:03:43.450Z,50.00
2019-05-23T04:04:43.443Z,49.40
2019-05-23T04:05:43.445Z,48.40
2019-05-23T04:06:43.411Z,50.30
2019-05-23T04:07:43.403Z,50.90
2019-05-23T04:08:43.392Z,49.90
2019-05-23T04:09:43.428Z,51.00
2019-05-23T04:10:43.391Z,49.10
2019-05-23T04:11:43.357Z,48.70
2019-05-23T04:12:43.356Z,47.30
2019-05-23T04:13:43.348Z,45.40
2019-05-23T04:14:43.342Z,44.20
2019-05-23T04:15:43.341Z,43.70
2019-05-23T04:16:43.329Z,43.80
2019-05-23T04:17:43.292Z,43.10
2019-05-23T04:18:43.314Z,42.90
2019-05-23T04:19:43.293Z,43.20
2019-05-23T04:20:43.294Z,42.90
2019-05-23T04:21:43.301Z,43.60
2019-05-23T04:22:43.268Z,41.60
2019-05-23T04:23:43.273Z,41.40
2019-05-23T04:24:43.236Z,40.50
2019-05-23T04:25:43.227Z,40.20
2019-05-23T04:26:43.245Z,41.60
2019-05-23T04:27:43.208Z,41.70
2019-05-23T04:28:43.208Z,41.20
2019-05-23T04:29:43.198Z,41.20
2019-05-23T04:30:43.188Z,41.40
2019-05-23T04:31:43.203Z,41.30
2019-05-23T04:32:43.156Z,40.70
2019-05-23T04:33:43.162Z,40.10
2019-05-23T04:34:43.143Z,39.30
2019-05-23T04:35:43.136Z,37.90
2019-05-23T04:36:43.212Z,38.00
2019-05-23T04:37:43.106Z,37.10
2019-05-23T04:38:43.134Z,37.00
2019-05-23T04:39:43.082Z,38.40
2019-05-23T04:40:43.073Z,36.90
2019-05-23T04:41:43.048Z,37.10
2019-05-23T04:42:43.075Z,37.20
2019-05-23T04:43:43.055Z,36.00
2019-05-23T04:44:44.396Z,36.70
2019-05-23T04:45:43.043Z,35.60
2019-05-23T04:46:43.027Z,37.10
2019-05-23T04:47:43.020Z,37.60
2019-05-23T04:48:43.018Z,35.80
2019-05-23T04:49:43.002Z,36.90
2019-05-23T04:50:42.997Z,36.40
2019-05-23T04:51:42.985Z,38.00
2019-05-23T04:52:43.017Z,35.70
2019-05-23T04:53:42.961Z,36.30
2019-05-23T04:54:42.949Z,37.80
2019-05-23T04:55:42.935Z,36.60
2019-05-23T04:56:42.954Z,35.20
2019-05-23T04:57:42.937Z,36.50
2019-05-23T04:58:42.893Z,35.60
2019-05-23T04:59:42.901Z,35.50
2019-05-23T05:00:42.886Z,37.30
2019-05-23T05:01:42.875Z,36.20
2019-05-23T05:02:42.857Z,36.00
2019-05-23T05:03:42.846Z,35.50
2019-05-23T05:04:42.867Z,36.10
2019-05-23T05:05:42.835Z,36.00
2019-05-23T05:06:42.819Z,35.00
2019-05-23T05:07:42.808Z,35.20
2019-05-23T05:08:42.799Z,35.70
2019-05-23T05:09:42.804Z,34.70
2019-05-23T05:10:42.777Z,33.70
2019-05-23T05:11:42.773Z,35.50
2019-05-23T05:12:42.752Z,35.60
2019-05-23T05:13:42.739Z,35.30
2019-05-23T05:14:42.746Z,36.80
2019-05-23T05:15:42.734Z,34.40
2019-05-23T05:16:42.731Z,35.40
2019-05-23T05:17:42.732Z,31.50
2019-05-23T05:18:42.718Z,31.20
2019-05-23T05:19:42.685Z,32.20
2019-05-23T05:20:42.700Z,31.00
2019-05-23T05:21:42.670Z,28.80
2019-05-23T05:22:42.738Z,28.80
2019-05-23T05:23:42.667Z,29.60
2019-05-23T05:24:42.658Z,29.30
2019-05-23T05:25:42.632Z,29.10
2019-05-23T05:26:42.603Z,31.90
2019-05-23T05:27:42.613Z,30.70
2019-05-23T05:28:42.649Z,30.40
2019-05-23T05:29:42.605Z,27.60
2019-05-23T05:30:42.580Z,27.20
2019-05-23T05:31:42.585Z,27.60
2019-05-23T05:32:45.247Z,27.00
2019-05-23T05:33:42.558Z,25.90
2019-05-23T05:34:42.585Z,25.00
2019-05-23T05:35:42.582Z,24.40
2019-05-23T05:36:42.527Z,26.40
2019-05-23T05:37:42.511Z,25.80
2019-05-23T05:38:42.487Z,25.70
2019-05-23T05:39:42.509Z,24.50
2019-05-23T05:40:42.487Z,24.60
2019-05-23T05:41:42.518Z,24.00
2019-05-23T05:42:42.451Z,23.80
2019-05-23T05:43:42.465Z,23.60
2019-05-23T05:44:42.434Z,24.80
2019-05-23T05:45:42.451Z,25.60
2019-05-23T05:46:42.408Z,24.60
2019-05-23T05:47:42.421Z,26.20
2019-05-23T05:48:42.425Z,26.90
2019-05-23T05:49:42.516Z,25.10
2019-05-23T05:50:42.392Z,25.30
2019-05-23T05:51:42.361Z,25.40
2019-05-23T05:52:42.353Z,24.90
2019-05-23T05:53:42.342Z,24.40
2019-05-23T05:54:42.345Z,25.20
2019-05-23T05:55:42.340Z,23.20
2019-05-23T05:56:42.314Z,23.50
2019-05-23T05:57:42.314Z,24.30
2019-05-23T05:58:42.353Z,22.40
2019-05-23T05:59:42.295Z,23.40
2019-05-23T06:00:42.276Z,24.20
2019-05-23T06:01:42.307Z,22.20
2019-05-23T06:02:42.321Z,22.60
2019-05-23T06:03:42.251Z,21.40
2019-05-23T06:04:42.241Z,21.90
2019-05-23T06:05:42.236Z,22.90
2019-05-23T06:06:42.278Z,22.20
2019-05-23T06:07:42.213Z,21.20
2019-05-23T06:08:42.209Z,20.80
2019-05-23T06:09:42.191Z,21.40
2019-05-23T06:10:42.214Z,22.00
2019-05-23T06:11:42.185Z,20.80
2019-05-23T06:12:42.155Z,20.70
2019-05-23T06:13:42.157Z,20.20
2019-05-23T06:14:45.951Z,21.40
2019-05-23T06:15:42.143Z,19.80
2019-05-23T06:16:42.124Z,21.00
2019-05-23T06:17:42.114Z,20.80
2019-05-23T06:18:42.088Z,21.80
2019-05-23T06:19:42.119Z,21.30
2019-05-23T06:20:42.082Z,20.80
2019-05-23T06:21:42.131Z,20.70
2019-05-23T06:22:42.102Z,21.20
2019-05-23T06:23:42.036Z,20.70
2019-05-23T06:24:49.757Z,20.40
2019-05-23T06:25:42.007Z,19.90
2019-05-23T06:26:42.069Z,21.60
2019-05-23T06:27:41.988Z,21.00
2019-05-23T06:28:42.014Z,19.90
2019-05-23T06:29:41.993Z,20.40
2019-05-23T06:30:41.995Z,21.00
2019-05-23T06:31:41.951Z,20.50
2019-05-23T06:32:41.960Z,19.70
2019-05-23T06:33:41.959Z,20.60
2019-05-23T06:34:41.929Z,21.00
2019-05-23T06:35:41.928Z,20.30
2019-05-23T06:36:41.908Z,19.10
2019-05-23T06:37:41.893Z,20.20
2019-05-23T06:38:41.900Z,19.70
2019-05-23T06:39:41.874Z,19.90
2019-05-23T06:40:41.848Z,19.60
2019-05-23T06:41:41.893Z,19.40
2019-05-23T06:42:41.842Z,20.30
2019-05-23T06:43:41.841Z,19.40
2019-05-23T06:44:41.815Z,21.20
2019-05-23T06:45:41.845Z,20.30
2019-05-23T06:46:41.820Z,20.70
2019-05-23T06:47:41.811Z,19.90
2019-05-23T06:48:45.594Z,19.70
2019-05-23T06:49:41.799Z,21.10
2019-05-23T06:50:41.813Z,21.20
2019-05-23T06:51:41.799Z,20.90
2019-05-23T06:52:41.753Z,20.20
2019-05-23T06:53:41.747Z,20.60
2019-05-23T06:54:41.731Z,20.20
2019-05-23T06:55:41.728Z,21.10
2019-05-23T06:56:41.696Z,21.20
2019-05-23T06:57:41.696Z,21.80
2019-05-23T06:58:41.687Z,21.90
2019-05-23T06:59:41.658Z,21.70
2019-05-23T07:00:41.682Z,21.10
2019-05-23T07:01:41.656Z,20.80
2019-05-23T07:02:41.657Z,20.30
2019-05-23T07:03:43.614Z,21.20
2019-05-23T07:04:41.623Z,22.40
2019-05-23T07:05:41.590Z,22.20
2019-05-23T07:06:41.596Z,20.70
2019-05-23T07:07:41.591Z,20.90
2019-05-23T07:08:41.582Z,21.40
2019-05-23T07:09:41.610Z,21.90
2019-05-23T07:10:41.586Z,20.60
2019-05-23T07:11:41.583Z,20.90
2019-05-23T07:12:41.535Z,21.00
2019-05-23T07:13:41.539Z,21.60
2019-05-23T07:14:41.567Z,21.90
2019-05-23T07:15:41.512Z,21.60
2019-05-23T07:16:41.490Z,22.30
2019-05-23T07:17:41.502Z,22.60
2019-05-23T07:18:41.481Z,22.20
2019-05-23T07:19:41.476Z,22.20
2019-05-23T07:20:41.455Z,22.50
2019-05-23T07:21:41.437Z,21.60
2019-05-23T07:22:41.430Z,21.90
2019-05-23T07:23:41.416Z,22.00
2019-05-23T07:24:56.937Z,21.70
2019-05-23T07:25:41.413Z,21.50
2019-05-23T07:26:41.414Z,23.50
2019-05-23T07:27:41.437Z,22.80
2019-05-23T07:28:41.382Z,22.40
2019-05-23T07:29:41.355Z,20.90
2019-05-23T07:30:41.350Z,23.00
2019-05-23T07:31:41.348Z,23.00
2019-05-23T07:32:41.365Z,23.70
2019-05-23T07:33:59.931Z,24.00
2019-05-23T07:34:41.305Z,23.20
2019-05-23T07:35:41.294Z,22.30
2019-05-23T07:36:41.277Z,21.10
2019-05-23T07:37:41.304Z,22.70
2019-05-23T07:38:41.282Z,22.50
2019-05-23T07:39:41.256Z,22.80
2019-05-23T07:40:41.277Z,23.40
2019-05-23T07:41:41.253Z,26.30
2019-05-23T07:42:41.223Z,25.20
2019-05-23T07:43:41.229Z,24.30
2019-05-23T07:44:48.300Z,24.30
2019-05-23T07:45:41.210Z,25.00
2019-05-23T07:46:41.204Z,23.80
2019-05-23T07:47:41.163Z,25.30
2019-05-23T07:48:41.156Z,25.00
2019-05-23T07:49:41.162Z,25.30
2019-05-23T07:50:41.153Z,23.60
2019-05-23T07:51:41.132Z,21.00
2019-05-23T07:52:41.103Z,21.40
2019-05-23T07:53:43.861Z,20.80
2019-05-23T07:54:41.117Z,21.40
2019-05-23T07:55:41.083Z,21.40
2019-05-23T07:56:41.075Z,20.30
2019-05-23T07:57:41.073Z,22.10
2019-05-23T07:58:41.042Z,23.20
2019-05-23T07:59:41.042Z,22.60
2019-05-23T08:00:41.058Z,22.90
2019-05-23T08:01:41.043Z,22.80
2019-05-23T08:02:41.012Z,21.90
2019-05-23T08:03:41.024Z,21.40
2019-05-23T08:04:40.994Z,21.90
2019-05-23T08:05:40.995Z,22.10
2019-05-23T08:06:40.967Z,22.30
2019-05-23T08:07:41.054Z,23.10
2019-05-23T08:08:40.957Z,21.40
2019-05-23T08:09:40.946Z,22.20
2019-05-23T08:10:40.955Z,22.70
2019-05-23T08:11:40.921Z,23.00
2019-05-23T08:12:40.909Z,23.90
2019-05-23T08:13:40.883Z,22.00
2019-05-23T08:14:40.897Z,22.50
2019-05-23T08:15:40.888Z,24.40
2019-05-23T08:16:40.896Z,23.30
2019-05-23T08:17:40.909Z,23.20
2019-05-23T08:18:40.854Z,24.50
2019-05-23T08:19:49.753Z,24.10
2019-05-23T08:20:40.824Z,24.30
2019-05-23T08:21:40.825Z,22.50
2019-05-23T08:22:40.794Z,22.30
2019-05-23T08:23:40.855Z,23.60
2019-05-23T08:24:40.801Z,23.90
2019-05-23T08:25:40.819Z,23.70
2019-05-23T08:26:40.781Z,24.60
2019-05-23T08:27:40.776Z,24.10
2019-05-23T08:29:00.472Z,23.10
2019-05-23T08:29:40.725Z,23.70
2019-05-23T08:30:40.769Z,24.40
2019-05-23T08:31:40.710Z,24.00
2019-05-23T08:32:40.740Z,24.20
2019-05-23T08:33:40.734Z,23.60
2019-05-23T08:34:42.704Z,24.30
2019-05-23T08:35:40.665Z,25.90
2019-05-23T08:36:40.644Z,25.30
2019-05-23T08:37:40.658Z,25.20
2019-05-23T08:38:40.620Z,25.20
2019-05-23T08:39:40.633Z,26.00
2019-05-23T08:40:40.612Z,26.70
2019-05-23T08:41:40.608Z,26.70
2019-05-23T08:42:40.583Z,26.00
2019-05-23T08:43:40.578Z,24.90
2019-05-23T08:44:40.570Z,24.70
2019-05-23T08:45:40.550Z,25.10
2019-05-23T08:46:40.581Z,25.00
2019-05-23T08:47:40.543Z,25.60
2019-05-23T08:48:40.527Z,23.20
2019-05-23T08:49:40.523Z,27.30
2019-05-23T08:50:40.498Z,26.40
2019-05-23T08:51:40.512Z,27.00
2019-05-23T08:52:40.471Z,26.00
2019-05-23T08:53:40.517Z,26.70
2019-05-23T08:54:40.495Z,25.60
2019-05-23T08:55:40.456Z,24.70
2019-05-23T08:56:40.457Z,25.60
2019-05-23T08:57:40.411Z,23.60
2019-05-23T08:58:40.434Z,23.40
2019-05-23T08:59:40.387Z,23.20
2019-05-23T09:00:40.406Z,24.40
2019-05-23T09:01:40.381Z,23.40
2019-05-23T09:02:40.359Z,23.60
2019-05-23T09:03:40.367Z,24.30
2019-05-23T09:04:50.504Z,23.80
2019-05-23T09:05:40.355Z,23.10
2019-05-23T09:06:40.339Z,24.40
2019-05-23T09:07:40.325Z,23.90
2019-05-23T09:08:40.308Z,21.90
2019-05-23T09:09:40.304Z,21.60
2019-05-23T09:10:40.279Z,21.50
2019-05-23T09:11:40.280Z,22.50
2019-05-23T09:12:40.282Z,21.50
2019-05-23T09:13:40.295Z,22.10
2019-05-23T09:14:40.242Z,21.90
2019-05-23T09:15:40.241Z,22.50
2019-05-23T09:16:40.264Z,23.30
2019-05-23T09:17:52.197Z,22.70
2019-05-23T09:18:40.198Z,22.20
2019-05-23T09:19:40.185Z,22.10
2019-05-23T09:20:40.219Z,20.40
2019-05-23T09:21:40.159Z,21.00
2019-05-23T09:22:40.151Z,22.40
2019-05-23T09:23:40.153Z,20.80
2019-05-23T09:24:40.141Z,21.40
2019-05-23T09:25:40.128Z,21.70
2019-05-23T09:26:40.128Z,21.00
2019-05-23T09:27:40.108Z,20.20
2019-05-23T09:28:40.096Z,20.60
2019-05-23T09:29:40.082Z,19.00
2019-05-23T09:30:40.086Z,17.90
2019-05-23T09:31:40.052Z,18.70
2019-05-23T09:32:40.047Z,17.70
2019-05-23T09:33:40.050Z,18.90
2019-05-23T09:34:40.044Z,19.20
2019-05-23T09:35:40.011Z,19.50
2019-05-23T09:36:40.029Z,19.10
2019-05-23T09:37:39.988Z,18.50
2019-05-23T09:38:39.992Z,18.90
2019-05-23T09:39:39.978Z,18.40
2019-05-23T09:40:39.972Z,17.50
2019-05-23T09:41:39.953Z,17.60
2019-05-23T09:42:39.953Z,17.10
2019-05-23T09:43:39.920Z,17.80
2019-05-23T09:44:39.923Z,16.80
2019-05-23T09:45:39.924Z,16.00
2019-05-23T09:46:39.929Z,16.70
2019-05-23T09:47:39.902Z,17.60
2019-05-23T09:48:39.883Z,16.20
2019-05-23T09:49:39.847Z,17.00
2019-05-23T09:50:39.831Z,17.20
2019-05-23T09:51:39.828Z,16.30
2019-05-23T09:52:39.832Z,15.80
2019-05-23T09:53:39.827Z,17.20
2019-05-23T09:54:39.839Z,15.70
2019-05-23T09:55:39.802Z,14.90
2019-05-23T09:56:39.786Z,15.00
2019-05-23T09:57:39.793Z,15.50
2019-05-23T09:58:39.772Z,16.30
2019-05-23T09:59:39.746Z,16.70
2019-05-23T10:00:39.757Z,15.80
2019-05-23T10:01:39.766Z,15.80
2019-05-23T10:02:39.708Z,16.20
2019-05-23T10:03:39.707Z,15.50
2019-05-23T10:04:39.697Z,15.70
2019-05-23T10:05:43.366Z,16.00
2019-05-23T10:06:39.675Z,14.80
2019-05-23T10:07:39.679Z,15.10
2019-05-23T10:08:39.644Z,15.70
2019-05-23T10:09:39.679Z,14.90
2019-05-23T10:10:39.690Z,15.20
2019-05-23T10:11:39.642Z,15.20
2019-05-23T10:12:39.631Z,15.50
2019-05-23T10:13:39.751Z,16.10
2019-05-23T10:14:39.618Z,16.00
2019-05-23T10:15:39.631Z,15.70
2019-05-23T10:16:39.568Z,15.80
2019-05-23T10:17:39.737Z,15.90
2019-05-23T10:18:39.560Z,16.00
2019-05-23T10:19:39.540Z,16.10
2019-05-23T10:20:39.523Z,17.50
2019-05-23T10:21:39.498Z,15.70
2019-05-23T10:22:39.508Z,14.70
2019-05-23T10:23:39.472Z,14.90
2019-05-23T10:24:39.499Z,15.20
2019-05-23T10:25:39.477Z,14.60
2019-05-23T10:26:39.512Z,15.70
2019-05-23T10:27:39.456Z,15.50
2019-05-23T10:28:39.456Z,15.70
2019-05-23T10:29:39.431Z,15.10
2019-05-23T10:30:39.428Z,15.30
2019-05-23T10:31:39.428Z,15.80
2019-05-23T10:32:39.458Z,15.50
2019-05-23T10:33:39.414Z,16.50
2019-05-23T10:34:39.416Z,15.60
2019-05-23T10:35:39.375Z,15.30
2019-05-23T10:36:39.395Z,15.50
2019-05-23T10:37:39.392Z,16.20
2019-05-23T10:38:39.377Z,15.20
2019-05-23T10:39:39.320Z,15.60
2019-05-23T10:40:39.322Z,15.10
2019-05-23T10:41:39.288Z,14.90
2019-05-23T10:42:39.293Z,14.80
2019-05-23T10:43:39.317Z,15.30
2019-05-23T10:44:39.313Z,15.50
2019-05-23T10:45:39.265Z,14.40
2019-05-23T10:46:39.254Z,15.40
2019-05-23T10:47:39.300Z,14.00
2019-05-23T10:48:39.259Z,15.30
2019-05-23T10:49:39.212Z,15.80
2019-05-23T10:50:44.608Z,16.00
2019-05-23T10:51:39.201Z,16.00
2019-05-23T10:52:39.185Z,18.00
2019-05-23T10:53:39.208Z,18.50
2019-05-23T10:54:39.170Z,18.50
2019-05-23T10:55:39.158Z,19.10
2019-05-23T10:56:39.190Z,19.80
2019-05-23T10:57:39.164Z,19.90
2019-05-23T10:58:39.127Z,19.50
2019-05-23T10:59:39.092Z,19.40
2019-05-23T11:00:39.096Z,18.40
2019-05-23T11:01:39.107Z,19.20
2019-05-23T11:02:39.088Z,18.80
2019-05-23T11:03:39.121Z,19.40
2019-05-23T11:04:39.062Z,20.10
2019-05-23T11:05:39.046Z,19.60
2019-05-23T11:06:39.037Z,17.70
2019-05-23T11:07:38.995Z,18.40
2019-05-23T11:08:39.001Z,19.10
2019-05-23T11:09:38.986Z,18.90
2019-05-23T11:10:38.988Z,18.00
2019-05-23T11:11:39.012Z,18.00
2019-05-23T11:12:38.956Z,20.00
2019-05-23T11:13:38.947Z,17.10
2019-05-23T11:14:38.955Z,18.80
2019-05-23T11:15:38.942Z,18.70
2019-05-23T11:16:38.923Z,18.40
2019-05-23T11:17:38.969Z,18.60
2019-05-23T11:18:38.913Z,18.80
2019-05-23T11:19:38.929Z,19.00
2019-05-23T11:20:38.878Z,19.10
2019-05-23T11:21:38.876Z,18.90
2019-05-23T11:22:38.870Z,18.80
2019-05-23T11:23:38.862Z,18.80
2019-05-23T11:24:38.850Z,18.30
2019-05-23T11:25:38.809Z,19.90
2019-05-23T11:26:38.824Z,20.20
2019-05-23T11:27:38.808Z,19.20
2019-05-23T11:28:38.802Z,18.10
2019-05-23T11:29:38.803Z,17.10
2019-05-23T11:30:38.779Z,17.30
2019-05-23T11:31:38.796Z,17.00
2019-05-23T11:32:38.754Z,18.70
2019-05-23T11:33:38.737Z,18.20
2019-05-23T11:34:38.725Z,18.30
2019-05-23T11:35:38.724Z,18.90
2019-05-23T11:36:38.693Z,17.60
2019-05-23T11:37:41.753Z,18.00
2019-05-23T11:38:38.690Z,17.50
2019-05-23T11:39:42.297Z,17.60
2019-05-23T11:40:38.673Z,18.10
2019-05-23T11:41:38.671Z,17.90
2019-05-23T11:42:38.657Z,17.50
2019-05-23T11:43:38.708Z,17.20
2019-05-23T11:44:38.628Z,16.10
2019-05-23T11:45:45.836Z,15.90
2019-05-23T11:46:38.625Z,15.90
2019-05-23T11:47:38.594Z,14.90
2019-05-23T11:48:38.601Z,16.50
2019-05-23T11:49:38.820Z,14.90
2019-05-23T11:50:38.569Z,14.70
2019-05-23T11:51:38.589Z,14.20
2019-05-23T11:52:38.565Z,14.10
2019-05-23T11:53:38.556Z,14.60
2019-05-23T11:54:38.543Z,12.60
2019-05-23T11:55:38.513Z,12.40
2019-05-23T11:56:38.537Z,13.20
2019-05-23T11:57:38.613Z,12.80
2019-05-23T11:58:38.515Z,12.10
2019-05-23T11:59:38.507Z,12.50
2019-05-23T12:00:38.538Z,12.90
2019-05-23T12:01:38.486Z,12.50
2019-05-23T12:02:38.466Z,11.00
2019-05-23T12:03:38.472Z,11.60
2019-05-23T12:04:38.460Z,11.40
2019-05-23T12:05:38.458Z,11.70
2019-05-23T12:06:53.606Z,13.30
2019-05-23T12:07:38.450Z,12.50
2019-05-23T12:08:38.420Z,11.20
2019-05-23T12:09:38.419Z,11.90
2019-05-23T12:10:38.407Z,11.10
2019-05-23T12:11:42.535Z,12.30
2019-05-23T12:12:38.393Z,11.90
2019-05-23T12:13:38.381Z,11.80
2019-05-23T12:14:38.369Z,11.50
2019-05-23T12:15:38.414Z,10.50
2019-05-23T12:16:38.356Z,12.00
2019-05-23T12:17:38.364Z,11.90
2019-05-23T12:18:38.359Z,12.60
2019-05-23T12:19:38.332Z,12.70
2019-05-23T12:20:38.313Z,13.00
2019-05-23T12:21:38.359Z,11.60
2019-05-23T12:22:38.327Z,13.10
2019-05-23T12:23:38.309Z,13.20
2019-05-23T12:24:38.431Z,13.10
2019-05-23T12:25:38.286Z,13.10
2019-05-23T12:26:38.291Z,13.80
2019-05-23T12:27:38.296Z,12.70
2019-05-23T12:28:38.323Z,13.10
2019-05-23T12:29:38.255Z,12.40
2019-05-23T12:30:38.243Z,14.00
2019-05-23T12:31:38.238Z,13.10
2019-05-23T12:32:38.255Z,13.10
2019-05-23T12:33:38.292Z,13.50
2019-05-23T12:34:38.228Z,13.60
2019-05-23T12:35:38.234Z,14.40
2019-05-23T12:36:38.227Z,14.40
2019-05-23T12:37:38.195Z,12.90
2019-05-23T12:38:38.204Z,14.40
2019-05-23T12:39:38.216Z,12.10
2019-05-23T12:40:38.205Z,11.10
2019-05-23T12:41:38.201Z,12.40
2019-05-23T12:42:38.155Z,11.20
2019-05-23T12:43:38.157Z,10.70
2019-05-23T12:44:38.169Z,12.30
2019-05-23T12:45:38.158Z,10.80
2019-05-23T12:46:38.164Z,9.90
2019-05-23T12:47:38.126Z,9.90
2019-05-23T12:48:38.174Z,9.20
2019-05-23T12:49:38.119Z,9.40
2019-05-23T12:50:38.185Z,9.70
2019-05-23T12:51:38.188Z,9.70
2019-05-23T12:52:38.140Z,9.10